createdAt,value
2023-04-11T00:00:19.392Z,2.10
2023-04-11T00:02:47.226Z,2.55
2023-04-11T00:05:17.936Z,2.72
2023-04-11T00:07:45.628Z,2.88
2023-04-11T00:10:13.347Z,3.03
2023-04-11T00:12:41.120Z,2.13
2023-04-11T00:15:09.794Z,3.20
2023-04-11T00:17:37.906Z,2.78
2023-04-11T00:20:08.312Z,2.05
2023-04-11T00:22:36.686Z,2.25
2023-04-11T00:25:04.370Z,2.28
2023-04-11T00:27:32.118Z,2.13
2023-04-11T00:30:00.288Z,2.10
2023-04-11T00:32:28.332Z,2.05
2023-04-11T00:34:58.064Z,1.90
2023-04-11T00:37:25.861Z,1.98
2023-04-11T00:39:56.091Z,2.67
2023-04-11T00:42:23.890Z,2.55
2023-04-11T00:44:51.773Z,1.67
2023-04-11T00:47:19.497Z,3.83
2023-04-11T00:49:47.296Z,4.05
2023-04-11T00:52:15.175Z,2.85
2023-04-11T00:54:42.915Z,2.35
2023-04-11T00:57:10.784Z,2.53
2023-04-11T00:59:38.806Z,2.35
2023-04-11T01:02:06.587Z,2.25
2023-04-11T01:04:34.316Z,2.22
2023-04-11T01:07:06.279Z,2.55
2023-04-11T01:09:35.880Z,2.95
2023-04-11T01:12:04.552Z,2.63
2023-04-11T01:14:32.310Z,3.05
2023-04-11T01:17:02.291Z,2.03
2023-04-11T01:19:30.440Z,2.35
2023-04-11T01:21:58.811Z,2.83
2023-04-11T01:24:26.478Z,3.13
2023-04-11T01:26:54.396Z,2.70
2023-04-11T01:29:22.101Z,2.65
2023-04-11T01:31:50.516Z,2.53
2023-04-11T01:34:19.425Z,3.00
2023-04-11T01:36:47.381Z,2.70
2023-04-11T01:39:15.064Z,2.13
2023-04-11T01:41:42.981Z,2.50
2023-04-11T01:44:10.670Z,2.15
2023-04-11T01:46:38.488Z,2.35
2023-04-11T01:49:07.916Z,2.00
2023-04-11T01:51:36.350Z,1.52
2023-04-11T01:54:04.036Z,2.65
2023-04-11T01:56:31.932Z,2.30
2023-04-11T01:58:59.687Z,2.42
2023-04-11T02:01:27.514Z,3.33
2023-04-11T02:03:55.738Z,3.30
2023-04-11T02:06:23.569Z,2.45
2023-04-11T02:08:51.506Z,2.35
2023-04-11T02:11:19.306Z,2.33
2023-04-11T02:13:47.256Z,2.22
2023-04-11T02:16:15.526Z,2.40
2023-04-11T02:18:43.871Z,2.00
2023-04-11T02:21:11.910Z,2.72
2023-04-11T02:23:39.576Z,2.33
2023-04-11T02:26:07.382Z,2.30
2023-04-11T02:28:37.590Z,2.03
2023-04-11T02:31:05.398Z,1.90
2023-04-11T02:33:33.145Z,2.17
2023-04-11T02:36:00.884Z,2.47
2023-04-11T02:38:29.042Z,1.88
2023-04-11T02:40:56.697Z,2.42
2023-04-11T02:43:24.518Z,2.13
2023-04-11T02:45:56.373Z,2.55
2023-04-11T02:48:29.968Z,2.13
2023-04-11T02:50:57.841Z,2.15
2023-04-11T02:53:25.703Z,2.05
2023-04-11T02:55:53.527Z,2.40
2023-04-11T02:58:21.328Z,2.63
2023-04-11T03:00:51.528Z,1.98
2023-04-11T03:03:19.586Z,2.30
2023-04-11T03:05:47.841Z,2.10
2023-04-11T03:08:15.704Z,3.30
2023-04-11T03:10:43.600Z,2.55
2023-04-11T03:13:11.872Z,2.45
2023-04-11T03:15:39.610Z,2.50
2023-04-11T03:18:07.349Z,3.50
2023-04-11T03:20:35.189Z,1.92
2023-04-11T03:23:02.917Z,3.05
2023-04-11T03:25:30.988Z,2.65
2023-04-11T03:27:58.762Z,2.58
2023-04-11T03:30:26.510Z,2.28
2023-04-11T03:32:54.465Z,2.88
2023-04-11T03:35:22.926Z,2.15
2023-04-11T03:37:51.264Z,2.25
2023-04-11T03:40:19.235Z,3.28
2023-04-11T03:42:47.321Z,2.53
2023-04-11T03:45:14.921Z,2.47
2023-04-11T03:47:42.973Z,2.70
2023-04-11T03:50:11.186Z,3.15
2023-04-11T03:52:38.970Z,3.10
2023-04-11T03:55:07.036Z,3.17
2023-04-11T03:57:34.827Z,2.65
2023-04-11T04:00:04.104Z,3.47
2023-04-11T04:02:32.167Z,3.42
2023-04-11T04:05:00.211Z,4.25
2023-04-11T04:07:30.316Z,3.95
2023-04-11T04:09:58.023Z,4.22
2023-04-11T04:12:26.461Z,3.60
2023-04-11T04:14:54.143Z,3.88
2023-04-11T04:17:21.993Z,2.67
2023-04-11T04:19:52.972Z,3.92
2023-04-11T04:22:22.404Z,4.30
2023-04-11T04:24:50.120Z,3.63
2023-04-11T04:27:18.437Z,3.03
2023-04-11T04:29:47.193Z,3.10
2023-04-11T04:32:25.079Z,2.72
2023-04-11T04:34:57.976Z,2.75
2023-04-11T04:37:28.893Z,2.45
2023-04-11T04:39:57.184Z,3.03
2023-04-11T04:42:26.000Z,2.42
2023-04-11T04:44:54.105Z,2.33
2023-04-11T04:47:25.223Z,1.80
2023-04-11T04:49:57.075Z,1.17
2023-04-11T04:52:26.003Z,2.92
2023-04-11T04:54:53.659Z,3.78
2023-04-11T04:57:21.479Z,1.83
2023-04-11T04:59:49.600Z,4.82
2023-04-11T05:02:17.479Z,3.00
2023-04-11T05:04:48.812Z,3.53
2023-04-11T05:07:17.002Z,2.58
2023-04-11T05:09:44.706Z,2.10
2023-04-11T05:12:13.925Z,4.15
2023-04-11T05:14:44.919Z,3.40
2023-04-11T05:17:12.684Z,2.97
2023-04-11T05:19:40.524Z,3.58
2023-04-11T05:22:08.125Z,6.43
2023-04-11T05:24:35.969Z,3.67
2023-04-11T05:27:03.688Z,6.32
2023-04-11T05:29:31.524Z,4.20
2023-04-11T05:31:59.292Z,3.72
2023-04-11T05:34:27.031Z,4.38
2023-04-11T05:36:55.478Z,3.30
2023-04-11T05:39:23.221Z,6.15
2023-04-11T05:41:51.214Z,4.53
2023-04-11T05:44:19.020Z,5.57
2023-04-11T05:46:49.389Z,5.25
2023-04-11T05:49:17.053Z,5.40
2023-04-11T05:51:44.723Z,5.28
2023-04-11T05:54:12.748Z,9.48
2023-04-11T05:56:42.590Z,6.57
2023-04-11T05:59:10.551Z,5.15
2023-04-11T06:01:39.971Z,6.10
2023-04-11T06:04:07.859Z,6.20
2023-04-11T06:06:36.249Z,7.65
2023-04-11T06:09:05.207Z,6.25
2023-04-11T06:11:33.012Z,5.75
2023-04-11T06:14:00.878Z,6.70
2023-04-11T06:16:29.259Z,8.00
2023-04-11T06:18:57.185Z,4.78
2023-04-11T06:21:25.250Z,7.90
2023-04-11T06:23:52.848Z,5.07
2023-04-11T06:26:23.655Z,8.52
2023-04-11T06:28:51.432Z,10.93
2023-04-11T06:31:19.258Z,7.05
2023-04-11T06:33:47.431Z,5.50
2023-04-11T06:36:15.733Z,6.20
2023-04-11T06:38:43.674Z,8.80
2023-04-11T06:41:11.664Z,7.50
2023-04-11T06:43:39.309Z,9.85
2023-04-11T06:46:08.437Z,7.22
2023-04-11T06:48:36.397Z,5.35
2023-04-11T06:51:04.052Z,12.02
2023-04-11T06:53:31.730Z,6.78
2023-04-11T06:56:00.816Z,8.52
2023-04-11T06:58:28.766Z,13.27
2023-04-11T07:00:56.568Z,8.68
2023-04-11T07:03:34.614Z,9.90
2023-04-11T07:06:02.572Z,12.73
2023-04-11T07:08:31.118Z,9.43
2023-04-11T07:11:06.620Z,12.93
2023-04-11T07:13:34.500Z,12.00
2023-04-11T07:16:02.118Z,8.27
2023-04-11T07:18:30.806Z,11.40
2023-04-11T07:20:58.783Z,10.52
2023-04-11T07:23:26.505Z,8.70
2023-04-11T07:25:54.581Z,13.18
2023-04-11T07:28:22.256Z,9.57
2023-04-11T07:30:49.964Z,7.13
2023-04-11T07:33:17.737Z,7.28
2023-04-11T07:35:47.660Z,4.95
2023-04-11T07:40:44.043Z,7.63
2023-04-11T07:43:12.124Z,5.78
2023-04-11T07:45:40.805Z,7.38
2023-04-11T07:48:08.694Z,7.70
2023-04-11T07:50:39.048Z,6.47
2023-04-11T07:53:08.052Z,6.88
2023-04-11T07:55:35.869Z,7.20
2023-04-11T07:58:03.586Z,6.40
2023-04-11T08:00:33.296Z,6.88
2023-04-11T08:03:07.437Z,9.23
2023-04-11T08:05:36.045Z,6.72
2023-04-11T08:08:04.066Z,9.63
2023-04-11T08:10:40.746Z,6.65
2023-04-11T08:13:08.860Z,9.85
2023-04-11T08:15:38.986Z,9.68
2023-04-11T08:18:11.761Z,7.80
2023-04-11T08:20:40.870Z,8.13
2023-04-11T08:23:10.696Z,9.02
2023-04-11T08:25:39.245Z,7.70
2023-04-11T08:28:10.115Z,11.73
2023-04-11T08:30:37.927Z,8.48
2023-04-11T08:33:05.590Z,11.70
2023-04-11T08:35:33.315Z,13.40
2023-04-11T08:38:01.446Z,9.85
2023-04-11T08:40:29.396Z,9.27
2023-04-11T08:43:00.832Z,7.43
2023-04-11T08:45:29.833Z,10.05
2023-04-11T08:48:00.172Z,8.30
2023-04-11T08:50:30.217Z,8.68
2023-04-11T08:53:00.150Z,9.05
2023-04-11T08:55:28.048Z,7.18
2023-04-11T08:57:59.723Z,6.80
2023-04-11T09:00:29.275Z,9.45
2023-04-11T09:02:57.418Z,8.20
2023-04-11T09:05:42.920Z,5.15
2023-04-11T09:08:12.538Z,5.30
2023-04-11T09:10:41.132Z,7.65
2023-04-11T09:13:23.066Z,5.80
2023-04-11T09:16:17.871Z,9.23
2023-04-11T09:18:47.051Z,10.60
2023-04-11T09:21:15.634Z,9.02
2023-04-11T09:23:46.173Z,10.30
2023-04-11T09:26:14.098Z,9.48
2023-04-11T09:28:43.232Z,8.63
2023-04-11T09:31:13.648Z,7.10
2023-04-11T09:33:52.938Z,7.68
2023-04-11T09:36:23.032Z,5.93
2023-04-11T09:38:54.226Z,5.30
2023-04-11T09:41:39.617Z,5.05
2023-04-11T09:44:07.524Z,4.57
2023-04-11T09:46:36.200Z,6.80
2023-04-11T09:49:04.489Z,7.13
2023-04-11T09:51:37.047Z,8.32
2023-04-11T09:54:06.035Z,10.77
2023-04-11T09:56:35.043Z,11.68
2023-04-11T09:59:03.957Z,7.18
2023-04-11T10:01:31.741Z,13.63
2023-04-11T10:04:01.228Z,7.93
2023-04-11T10:09:13.380Z,14.38
2023-04-11T10:11:46.105Z,11.98
2023-04-11T10:14:44.459Z,14.30
2023-04-11T10:17:22.976Z,11.98
2023-04-11T10:19:56.665Z,6.95
2023-04-11T10:22:45.297Z,7.75
2023-04-11T10:25:19.668Z,4.95
2023-04-11T10:27:49.912Z,5.32
2023-04-11T10:30:17.911Z,6.45
2023-04-11T10:33:05.507Z,6.80
2023-04-11T10:35:34.038Z,4.10
2023-04-11T10:38:02.334Z,6.57
2023-04-11T10:40:30.288Z,5.68
2023-04-11T10:42:58.300Z,6.03
2023-04-11T10:45:34.487Z,4.10
2023-04-11T10:48:03.636Z,6.50
2023-04-11T10:50:34.533Z,4.95
2023-04-11T10:53:06.548Z,11.65
2023-04-11T10:55:50.301Z,12.65
2023-04-11T10:58:21.718Z,11.70
2023-04-11T11:00:52.733Z,11.48
2023-04-11T11:03:20.533Z,9.23
2023-04-11T11:05:58.270Z,11.57
2023-04-11T11:08:38.266Z,10.40
2023-04-11T11:11:07.944Z,10.95
2023-04-11T11:16:14.949Z,13.57
2023-04-11T11:18:49.023Z,11.93
2023-04-11T11:21:26.539Z,13.27
2023-04-11T11:23:56.132Z,6.22
2023-04-11T11:26:25.020Z,10.05
2023-04-11T11:28:53.064Z,10.13
2023-04-11T11:31:21.022Z,10.73
2023-04-11T11:33:48.755Z,8.55
2023-04-11T11:36:22.379Z,4.45
2023-04-11T11:38:50.228Z,3.58
2023-04-11T11:41:18.072Z,6.63
2023-04-11T11:43:47.929Z,6.43
2023-04-11T11:46:15.778Z,8.23
2023-04-11T11:48:44.269Z,7.93
2023-04-11T11:51:12.131Z,8.27
2023-04-11T11:53:40.049Z,7.57
2023-04-11T11:56:14.352Z,5.57
2023-04-11T11:58:45.618Z,6.25
2023-04-11T12:03:42.860Z,8.05
2023-04-11T12:06:11.298Z,5.40
2023-04-11T12:08:50.129Z,10.52
2023-04-11T12:11:28.859Z,13.07
2023-04-11T12:13:56.982Z,10.48
2023-04-11T12:16:24.981Z,7.97
2023-04-11T12:19:00.774Z,6.25
2023-04-11T12:21:28.652Z,6.13
2023-04-11T12:23:56.484Z,6.45
2023-04-11T12:26:25.453Z,5.72
2023-04-11T12:28:54.600Z,6.88
2023-04-11T12:31:22.783Z,5.10
2023-04-11T12:33:50.609Z,6.80
2023-04-11T12:36:18.739Z,7.72
2023-04-11T12:38:46.673Z,4.90
2023-04-11T12:41:31.497Z,5.70
2023-04-11T12:44:04.001Z,8.52
2023-04-11T12:49:01.714Z,5.22
2023-04-11T12:51:31.451Z,5.82
2023-04-11T12:54:01.077Z,6.55
2023-04-11T12:58:58.959Z,4.97
2023-04-11T13:01:29.373Z,4.63
2023-04-11T13:03:59.964Z,4.63
2023-04-11T13:06:28.397Z,7.05
2023-04-11T13:08:58.543Z,4.47
2023-04-11T13:11:26.439Z,11.18
2023-04-11T13:13:54.422Z,6.25
2023-04-11T13:16:22.592Z,4.43
2023-04-11T13:18:50.375Z,5.25
2023-04-11T13:21:18.068Z,5.40
2023-04-11T13:23:46.097Z,5.25
2023-04-11T13:26:15.958Z,3.58
2023-04-11T13:28:43.625Z,7.75
2023-04-11T13:31:11.553Z,6.07
2023-04-11T13:33:42.142Z,4.90
2023-04-11T13:36:10.622Z,5.50
2023-04-11T13:38:39.394Z,6.50
2023-04-11T13:41:07.349Z,5.13
2023-04-11T13:43:35.289Z,5.43
2023-04-11T13:46:06.170Z,11.30
2023-04-11T13:48:33.866Z,13.55
2023-04-11T13:51:04.572Z,17.10
2023-04-11T13:53:32.174Z,11.00
2023-04-11T13:55:59.962Z,9.02
2023-04-11T13:58:28.699Z,12.13
2023-04-11T14:00:56.836Z,10.60
2023-04-11T14:03:30.278Z,10.73
2023-04-11T14:05:58.727Z,8.63
2023-04-11T14:08:26.793Z,7.72
2023-04-11T14:10:54.817Z,10.95
2023-04-11T14:13:22.780Z,6.30
2023-04-11T14:16:04.968Z,6.20
2023-04-11T14:18:38.554Z,3.47
2023-04-11T14:21:07.414Z,3.97
2023-04-11T14:23:35.240Z,5.53
2023-04-11T14:26:03.714Z,7.68
2023-04-11T14:28:33.976Z,7.38
2023-04-11T14:31:02.005Z,7.20
2023-04-11T14:33:30.326Z,6.72
2023-04-11T14:35:59.120Z,6.68
2023-04-11T14:38:26.937Z,9.55
2023-04-11T14:40:54.795Z,6.03
2023-04-11T14:43:22.827Z,9.10
2023-04-11T14:45:51.159Z,10.40
2023-04-11T14:48:18.904Z,10.55
2023-04-11T14:50:46.720Z,9.90
2023-04-11T14:53:14.464Z,13.35
2023-04-11T14:55:44.672Z,13.23
2023-04-11T14:58:15.659Z,10.38
2023-04-11T15:00:43.863Z,12.02
2023-04-11T15:03:12.494Z,9.95
2023-04-11T15:05:40.556Z,10.82
2023-04-11T15:08:08.350Z,12.05
2023-04-11T15:10:36.373Z,10.07
2023-04-11T15:13:11.985Z,8.48
2023-04-11T15:15:39.915Z,10.20
2023-04-11T15:18:29.504Z,10.48
2023-04-11T15:20:57.917Z,10.50
2023-04-11T15:23:26.451Z,8.68
2023-04-11T15:25:55.025Z,10.82
2023-04-11T15:28:22.836Z,9.85
2023-04-11T15:30:52.649Z,11.55
2023-04-11T15:33:22.267Z,6.18
2023-04-11T15:35:50.224Z,10.50
2023-04-11T15:38:18.732Z,10.35
2023-04-11T15:40:54.657Z,11.02
2023-04-11T15:45:52.494Z,11.82
2023-04-11T15:48:21.014Z,10.02
2023-04-11T15:50:48.909Z,8.82
2023-04-11T15:53:17.059Z,10.23
2023-04-11T15:55:45.033Z,10.93
2023-04-11T15:58:15.134Z,9.07
2023-04-11T16:00:44.087Z,9.30
2023-04-11T16:03:12.396Z,7.47
2023-04-11T16:05:43.222Z,7.82
2023-04-11T16:08:11.270Z,10.70
2023-04-11T16:10:39.210Z,10.68
2023-04-11T16:13:07.109Z,8.85
2023-04-11T16:15:36.113Z,9.70
2023-04-11T16:18:04.514Z,9.43
2023-04-11T16:20:34.076Z,10.25
2023-04-11T16:23:01.678Z,8.43
2023-04-11T16:25:29.363Z,10.50
2023-04-11T16:27:57.144Z,9.00
2023-04-11T16:30:26.380Z,9.23
2023-04-11T16:32:54.589Z,8.80
2023-04-11T16:35:22.675Z,5.68
2023-04-11T16:37:50.310Z,7.93
2023-04-11T16:40:18.144Z,5.13
2023-04-11T16:42:45.822Z,12.80
2023-04-11T16:45:13.638Z,13.30
2023-04-11T16:47:41.371Z,9.50
2023-04-11T16:50:09.491Z,10.88
2023-04-11T16:52:37.315Z,12.00
2023-04-11T16:55:05.808Z,11.27
2023-04-11T16:57:33.662Z,6.95
2023-04-11T17:00:06.800Z,9.80
2023-04-11T17:02:34.770Z,11.88
2023-04-11T17:05:05.471Z,11.70
2023-04-11T17:07:33.573Z,11.80
2023-04-11T17:10:01.514Z,11.15
2023-04-11T17:12:29.498Z,10.18
2023-04-11T17:14:59.588Z,10.52
2023-04-11T17:17:27.232Z,9.52
2023-04-11T17:19:54.934Z,8.05
2023-04-11T17:22:22.922Z,9.27
2023-04-11T17:24:50.572Z,8.90
2023-04-11T17:27:18.312Z,7.63
2023-04-11T17:29:46.258Z,11.00
2023-04-11T17:32:13.999Z,11.40
2023-04-11T17:34:42.036Z,5.45
2023-04-11T17:37:10.467Z,5.25
2023-04-11T17:39:38.247Z,6.00
2023-04-11T17:42:06.609Z,6.28
2023-04-11T17:44:34.530Z,7.35
2023-04-11T17:47:02.030Z,6.03
2023-04-11T17:49:29.890Z,5.78
2023-04-11T17:51:59.696Z,6.45
2023-04-11T17:54:27.641Z,6.15
2023-04-11T17:56:56.370Z,6.05
2023-04-11T17:59:25.546Z,6.40
2023-04-11T18:01:56.366Z,4.57
2023-04-11T18:04:24.205Z,6.28
2023-04-11T18:06:52.119Z,6.90
2023-04-11T18:09:20.346Z,8.30
2023-04-11T18:11:48.079Z,9.85
2023-04-11T18:14:15.828Z,7.65
2023-04-11T18:16:43.473Z,10.45
2023-04-11T18:19:11.236Z,7.22
2023-04-11T18:21:41.750Z,8.98
2023-04-11T18:24:09.271Z,7.50
2023-04-11T18:26:37.104Z,8.27
2023-04-11T18:29:07.284Z,7.93
2023-04-11T18:31:35.443Z,7.75
2023-04-11T18:34:03.817Z,10.73
2023-04-11T18:36:32.663Z,11.75
2023-04-11T18:39:00.754Z,10.13
2023-04-11T18:41:28.486Z,13.70
2023-04-11T18:43:56.631Z,14.90
2023-04-11T18:46:24.285Z,11.52
2023-04-11T18:48:52.151Z,11.13
2023-04-11T18:51:21.227Z,10.68
2023-04-11T18:53:49.193Z,12.38
2023-04-11T18:56:16.976Z,7.63
2023-04-11T18:58:46.602Z,10.02
2023-04-11T19:01:17.390Z,12.35
2023-04-11T19:03:46.316Z,12.13
2023-04-11T19:06:14.471Z,12.82
2023-04-11T19:08:42.170Z,10.20
2023-04-11T19:11:10.065Z,10.65
2023-04-11T19:13:37.882Z,12.35
2023-04-11T19:16:05.949Z,14.38
2023-04-11T19:18:33.739Z,9.85
2023-04-11T19:21:02.208Z,13.38
2023-04-11T19:23:29.863Z,13.98
2023-04-11T19:26:00.533Z,10.85
2023-04-11T19:28:28.370Z,8.68
2023-04-11T19:30:56.062Z,12.77
2023-04-11T19:33:26.120Z,6.55
2023-04-11T19:35:54.924Z,8.45
2023-04-11T19:38:22.754Z,8.18
2023-04-11T19:40:50.595Z,7.32
2023-04-11T19:43:18.271Z,8.07
2023-04-11T19:45:46.641Z,7.35
2023-04-11T19:48:16.304Z,7.18
2023-04-11T19:50:44.030Z,9.02
2023-04-11T19:53:11.848Z,7.93
2023-04-11T19:55:39.567Z,9.73
2023-04-11T19:58:07.321Z,10.02
2023-04-11T20:00:37.700Z,8.60
2023-04-11T20:03:07.563Z,9.40
2023-04-11T20:05:36.295Z,9.90
2023-04-11T20:08:04.130Z,9.15
2023-04-11T20:10:31.894Z,8.50
2023-04-11T20:12:59.681Z,9.93
2023-04-11T20:15:27.312Z,9.55
2023-04-11T20:17:55.219Z,9.25
2023-04-11T20:20:25.585Z,9.00
2023-04-11T20:22:53.755Z,8.25
2023-04-11T20:25:21.629Z,6.80
2023-04-11T20:27:49.426Z,8.57
2023-04-11T20:30:17.398Z,11.95
2023-04-11T20:32:47.533Z,17.58
2023-04-11T20:35:16.228Z,21.15
2023-04-11T20:37:43.958Z,24.20
2023-04-11T20:40:13.537Z,21.15
2023-04-11T20:42:42.650Z,13.80
2023-04-11T20:45:11.474Z,11.57
2023-04-11T20:47:39.497Z,9.35
2023-04-11T20:50:13.329Z,8.65
2023-04-11T20:52:45.762Z,10.95
2023-04-11T20:55:14.640Z,8.57
2023-04-11T20:57:42.361Z,10.27
2023-04-11T21:00:14.153Z,8.68
2023-04-11T21:02:44.511Z,9.65
2023-04-11T21:05:14.846Z,9.32
2023-04-11T21:07:43.393Z,8.63
2023-04-11T21:10:12.305Z,9.25
2023-04-11T21:12:43.187Z,8.98
2023-04-11T21:15:11.947Z,8.52
2023-04-11T21:17:39.820Z,7.22
2023-04-11T21:20:18.115Z,7.05
2023-04-11T21:22:46.507Z,7.38
2023-04-11T21:25:14.269Z,6.72
2023-04-11T21:27:41.977Z,3.97
2023-04-11T21:30:10.384Z,6.38
2023-04-11T21:32:38.287Z,5.57
2023-04-11T21:35:07.241Z,7.90
2023-04-11T21:37:35.624Z,6.57
2023-04-11T21:40:03.682Z,6.00
2023-04-11T21:42:31.744Z,7.50
2023-04-11T21:44:59.420Z,6.97
2023-04-11T21:47:29.751Z,6.32
2023-04-11T21:49:57.598Z,8.57
2023-04-11T21:52:25.445Z,7.88
2023-04-11T21:54:53.166Z,8.25
2023-04-11T21:57:21.368Z,9.95
2023-04-11T21:59:49.027Z,9.65
2023-04-11T22:02:17.007Z,7.47
2023-04-11T22:04:56.382Z,10.02
2023-04-11T22:07:48.570Z,10.30
2023-04-11T22:10:22.331Z,8.82
2023-04-11T22:12:50.526Z,9.20
2023-04-11T22:15:20.860Z,7.57
2023-04-11T22:17:51.385Z,6.47
2023-04-11T22:20:20.078Z,6.85
2023-04-11T22:22:48.175Z,6.40
2023-04-11T22:25:18.344Z,5.90
2023-04-11T22:27:46.265Z,6.95
2023-04-11T22:30:14.693Z,6.40
2023-04-11T22:32:42.381Z,3.42
2023-04-11T22:35:10.592Z,3.30
2023-04-11T22:37:38.759Z,3.50
2023-04-11T22:40:06.686Z,9.85
2023-04-11T22:42:34.837Z,11.80
2023-04-11T22:45:03.043Z,12.50
2023-04-11T22:47:32.688Z,10.63
2023-04-11T22:50:01.598Z,12.27
2023-04-11T22:52:30.218Z,10.20
2023-04-11T22:54:58.175Z,11.27
2023-04-11T22:57:26.101Z,12.07
2023-04-11T22:59:53.896Z,10.18
2023-04-11T23:02:23.598Z,12.73
2023-04-11T23:07:19.166Z,10.65
2023-04-11T23:09:47.337Z,14.80
2023-04-11T23:12:14.953Z,15.45
2023-04-11T23:14:42.729Z,17.55
2023-04-11T23:17:10.466Z,15.25
2023-04-11T23:19:38.089Z,15.77
2023-04-11T23:22:08.262Z,10.68
2023-04-11T23:24:36.237Z,13.45
2023-04-11T23:27:03.962Z,13.80
2023-04-11T23:29:32.016Z,11.75
2023-04-11T23:31:59.790Z,12.77
2023-04-11T23:34:28.148Z,11.43
2023-04-11T23:36:57.644Z,11.65
2023-04-11T23:39:27.731Z,10.93
2023-04-11T23:41:55.376Z,10.43
2023-04-11T23:44:22.978Z,11.25
2023-04-11T23:46:50.806Z,10.90
2023-04-11T23:49:18.593Z,10.40
2023-04-11T23:51:46.591Z,10.27
2023-04-11T23:54:14.413Z,9.52
2023-04-11T23:56:43.931Z,10.02
2023-04-11T23:59:11.678Z,9.93
